Time;durP1;ratioP1;P1;durP2;ratioP2;P2;SDS_P1;SDS_P2;PMS_P1;PMS_P2;Temp;Humidity;BMP_temperature;BMP_pressure;BME280_temperature;BME280_humidity;BME280_pressure;Samples;Min_cycle;Max_cycle;Signal;HPM_P1;HPM_P2
2022/11/26 00:01:14;;;;;;;5.03;3.45;;;;;;;6.93;60.28;100202.34;5032530;28;20022;-37
2022/11/26 00:03:40;;;;;;;4.68;3.53;;;;;;;6.89;59.98;100197.56;5031861;28;20021;-37
2022/11/26 00:06:33;;;;;;;4.88;3.60;;;;;;;6.97;59.50;100210.78;5031770;28;20029;-36
2022/11/26 00:09:00;;;;;;;5.07;3.22;;;;;;;7.15;59.14;100213.22;5031571;28;20030;-37
2022/11/26 00:11:25;;;;;;;5.35;3.60;;;;;;;7.14;59.45;100211.53;5031620;28;20413;-37
2022/11/26 00:13:51;;;;;;;6.20;3.53;;;;;;;7.01;59.10;100212.09;5031498;28;20034;-37
2022/11/26 00:16:16;;;;;;;5.28;3.60;;;;;;;6.85;59.27;100212.94;5031439;28;20435;-37
2022/11/26 00:18:42;;;;;;;5.28;3.53;;;;;;;7.16;58.82;100209.56;5031415;28;20021;-37
2022/11/26 00:21:26;;;;;;;4.80;3.55;;;;;;;7.20;58.40;100205.59;5031670;28;20025;-37
2022/11/26 00:23:53;;;;;;;4.82;3.35;;;;;;;7.03;58.75;100213.56;5031418;28;20053;-35
2022/11/26 00:26:21;;;;;;;4.97;3.65;;;;;;;7.15;58.54;100200.78;5032070;28;20037;-36
2022/11/26 00:28:54;;;;;;;5.35;3.72;;;;;;;7.20;58.22;100205.59;5031393;28;20131;-37
2022/11/26 00:31:20;;;;;;;5.63;3.50;;;;;;;7.56;56.53;100226.31;5031264;28;20036;-36
2022/11/26 00:33:45;;;;;;;4.57;3.17;;;;;;;7.64;56.78;100207.75;5031488;28;20021;-36
2022/11/26 00:36:24;;;;;;;4.57;3.30;;;;;;;7.51;56.82;100213.59;5031780;28;20480;-36
2022/11/26 00:39:16;;;;;;;5.78;3.60;;;;;;;7.54;56.31;100217.69;5031850;28;20026;-36
2022/11/26 00:41:46;;;;;;;4.60;3.35;;;;;;;7.54;56.24;100213.25;5029689;28;20034;-36
2022/11/26 00:44:24;;;;;;;5.50;3.35;;;;;;;7.51;56.25;100210.13;5031595;28;20087;-36
2022/11/26 00:46:50;;;;;;;5.35;3.50;;;;;;;7.23;56.70;100208.72;5031862;28;20014;-37
2022/11/26 00:49:16;;;;;;;5.75;3.47;;;;;;;7.13;57.13;100220.50;5032261;28;20028;-36
2022/11/26 00:51:42;;;;;;;4.63;3.08;;;;;;;7.37;56.80;100209.84;5032535;28;20026;-36
2022/11/26 00:54:12;;;;;;;5.30;3.33;;;;;;;7.59;55.48;100215.38;5032388;28;20029;-36
2022/11/26 00:56:39;;;;;;;4.88;3.13;;;;;;;7.21;56.55;100204.59;5032318;28;20036;-37
2022/11/26 00:59:05;;;;;;;5.05;3.13;;;;;;;7.21;56.66;100210.69;5031898;28;20056;-36
2022/11/26 01:01:31;;;;;;;4.32;3.20;;;;;;;7.05;56.89;100203.63;5031994;28;20060;-35
2022/11/26 01:03:58;;;;;;;3.92;2.83;;;;;;;6.71;58.23;100213.63;5032144;28;20033;-36
2022/11/26 01:06:32;;;;;;;6.18;3.20;;;;;;;6.78;58.08;100206.69;5032224;28;20091;-36
2022/11/26 01:08:58;;;;;;;4.78;3.03;;;;;;;6.71;58.06;100206.50;5031998;28;20022;-37
2022/11/26 01:11:24;;;;;;;4.63;3.30;;;;;;;6.99;57.40;100214.09;5032090;28;20032;-37
2022/11/26 01:13:52;;;;;;;3.63;2.83;;;;;;;6.92;57.72;100207.81;5031906;28;20033;-36
2022/11/26 01:16:24;;;;;;;6.03;3.20;;;;;;;6.82;58.14;100202.69;5031996;28;20026;-37
2022/11/26 01:18:52;;;;;;;4.40;3.10;;;;;;;7.16;57.62;100202.47;5031637;28;20021;-36
2022/11/26 01:21:19;;;;;;;4.30;3.10;;;;;;;7.36;57.15;100213.47;5031891;28;20032;-37
2022/11/26 01:23:44;;;;;;;4.82;3.15;;;;;;;7.37;56.51;100207.19;5031391;28;20046;-37
2022/11/26 01:26:21;;;;;;;5.38;3.20;;;;;;;7.44;56.61;100202.88;5031866;28;20026;-37
2022/11/26 01:28:47;;;;;;;4.43;3.20;;;;;;;7.39;56.16;100196.44;5031809;28;20060;-37
2022/11/26 01:31:21;;;;;;;4.32;3.20;;;;;;;7.45;55.58;100198.38;5031626;28;20484;-37
2022/11/26 01:33:47;;;;;;;4.38;3.20;;;;;;;7.48;55.66;100213.09;5031741;28;20029;-37
2022/11/26 01:36:25;;;;;;;4.63;3.25;;;;;;;7.32;55.89;100212.16;5031370;28;20450;-37
2022/11/26 01:38:59;;;;;;;4.78;3.20;;;;;;;7.30;55.25;100219.44;5031542;28;20076;-37
2022/11/26 01:41:56;;;;;;;3.85;2.90;;;;;;;6.99;56.60;100214.09;5031370;28;20467;-37
2022/11/26 01:44:30;;;;;;;4.68;3.13;;;;;;;6.87;56.98;100205.66;5031075;28;20033;-37
2022/11/26 01:46:56;;;;;;;4.68;3.10;;;;;;;6.93;56.69;100212.09;5031143;28;20022;-36
2022/11/26 01:49:28;;;;;;;5.45;2.92;;;;;;;7.00;56.60;100215.72;5031329;28;20043;-36
2022/11/26 01:52:03;;;;;;;6.47;3.30;;;;;;;6.85;57.86;100205.84;5030642;28;20040;-38
2022/11/26 01:54:31;;;;;;;5.97;3.30;;;;;;;6.65;58.14;100208.00;5031236;28;20032;-38
2022/11/26 01:57:06;;;;;;;5.05;3.20;;;;;;;6.77;57.59;100219.06;5031197;28;20022;-38
2022/11/26 01:59:36;;;;;;;4.93;3.20;;;;;;;6.80;57.89;100212.63;5031155;28;20029;-36
2022/11/26 02:02:02;;;;;;;4.85;2.90;;;;;;;7.12;56.60;100216.19;5031346;28;20107;-37
2022/11/26 02:04:34;;;;;;;4.93;3.13;;;;;;;6.69;57.66;100205.03;5031077;28;20032;-37
2022/11/26 02:07:00;;;;;;;5.13;3.20;;;;;;;6.63;57.93;100204.69;5031305;28;20021;-37
2022/11/26 02:09:27;;;;;;;5.13;3.50;;;;;;;6.39;58.41;100217.91;5031001;28;20021;-37
2022/11/26 02:11:53;;;;;;;5.18;3.50;;;;;;;6.64;57.78;100214.31;5031473;28;20079;-36
2022/11/26 02:14:40;;;;;;;6.00;3.80;;;;;;;6.71;57.92;100222.38;5031338;28;20088;-37
2022/11/26 02:17:18;;;;;;;5.85;3.58;;;;;;;6.74;57.98;100221.22;5031305;28;20465;-37
2022/11/26 02:20:17;;;;;;;5.30;3.45;;;;;;;6.79;57.89;100222.34;5030882;28;20104;-36
2022/11/26 02:22:48;;;;;;;4.65;3.20;;;;;;;6.91;57.74;100222.00;5031219;28;20142;-37
2022/11/26 02:25:19;;;;;;;4.57;3.00;;;;;;;6.80;57.54;100220.56;5030759;28;20132;-36
2022/11/26 02:28:06;;;;;;;4.93;3.13;;;;;;;6.99;56.96;100219.38;5030744;28;20026;-37
2022/11/26 02:30:36;;;;;;;4.18;2.97;;;;;;;6.79;57.28;100219.72;5030915;28;20369;-36
2022/11/26 02:33:07;;;;;;;3.95;3.10;;;;;;;6.53;57.87;100227.00;5031235;28;20018;-36
2022/11/26 02:35:42;;;;;;;4.35;2.88;;;;;;;6.79;57.60;100225.00;5030508;28;20496;-36
2022/11/26 02:38:18;;;;;;;4.15;2.80;;;;;;;6.62;57.71;100232.13;5030636;28;20449;-36
2022/11/26 02:40:44;;;;;;;4.28;3.40;;;;;;;6.70;57.06;100233.97;5030952;28;20052;-36
2022/11/26 02:43:12;;;;;;;4.18;3.30;;;;;;;6.72;56.92;100233.78;5030658;28;20017;-37
2022/11/26 02:45:41;;;;;;;5.65;3.17;;;;;;;6.67;57.59;100220.25;5031064;28;20160;-37
2022/11/26 02:48:13;;;;;;;5.88;3.53;;;;;;;6.45;57.87;100215.47;5030303;28;20133;-36
2022/11/26 02:50:46;;;;;;;5.30;3.40;;;;;;;6.50;57.38;100233.47;5030558;28;20489;-36
2022/11/26 02:53:14;;;;;;;5.03;3.42;;;;;;;6.57;57.71;100231.81;5030842;28;20036;-36
2022/11/26 02:55:44;;;;;;;5.80;3.80;;;;;;;6.25;58.31;100240.56;5030642;28;20466;-36
2022/11/26 02:58:10;;;;;;;7.30;4.03;;;;;;;6.10;58.69;100242.19;5030606;28;20017;-37
2022/11/26 03:00:39;;;;;;;4.97;3.88;;;;;;;6.08;58.92;100229.13;5030029;28;20032;-37
2022/11/26 03:03:10;;;;;;;6.20;3.80;;;;;;;6.04;58.57;100248.94;5030792;28;20057;-37
2022/11/26 03:05:39;;;;;;;6.30;3.88;;;;;;;6.12;58.87;100242.84;5033971;28;20386;-37
2022/11/26 03:08:06;;;;;;;7.03;4.10;;;;;;;6.09;58.61;100251.91;5034404;28;20030;-36
2022/11/26 03:10:32;;;;;;;5.82;3.53;;;;;;;6.06;58.99;100252.25;5034335;28;20484;-36
2022/11/26 03:12:58;;;;;;;5.40;3.88;;;;;;;6.07;59.36;100257.38;5033978;28;20485;-36
2022/11/26 03:15:23;;;;;;;5.75;3.78;;;;;;;6.17;58.63;100262.50;5033765;28;20053;-38
2022/11/26 03:17:49;;;;;;;6.53;3.58;;;;;;;6.21;58.12;100269.13;5033428;28;20120;-37
2022/11/26 03:20:16;;;;;;;5.75;4.05;;;;;;;6.16;58.81;100262.66;5033667;28;20021;-37
2022/11/26 03:22:41;;;;;;;6.47;4.05;;;;;;;5.97;59.26;100267.22;5034020;28;20032;-37
2022/11/26 03:25:08;;;;;;;6.10;3.88;;;;;;;5.96;59.07;100264.75;5033595;28;20397;-37
2022/11/26 03:27:33;;;;;;;6.32;4.05;;;;;;;5.78;59.39;100268.28;5033992;28;20029;-37
2022/11/26 03:29:58;;;;;;;7.13;4.22;;;;;;;6.06;58.65;100273.38;5033730;28;20028;-37
2022/11/26 03:32:24;;;;;;;7.43;4.22;;;;;;;5.86;59.02;100270.13;5033723;28;20029;-37
2022/11/26 03:34:50;;;;;;;4.55;3.58;;;;;;;5.75;59.11;100258.06;5033954;28;20021;-37
2022/11/26 03:37:16;;;;;;;5.53;3.72;;;;;;;5.85;58.91;100279.88;5033701;28;20104;-37
2022/11/26 03:39:41;;;;;;;6.35;4.07;;;;;;;5.85;58.57;100290.44;5033542;28;20354;-37
2022/11/26 03:42:07;;;;;;;5.28;3.47;;;;;;;5.82;59.22;100290.75;5033809;28;20017;-37
2022/11/26 03:44:32;;;;;;;6.00;3.80;;;;;;;5.85;59.13;100306.28;5033537;28;20024;-37
2022/11/26 03:46:57;;;;;;;6.13;4.00;;;;;;;6.09;58.06;100315.31;5033459;28;20490;-37
2022/11/26 03:49:23;;;;;;;7.20;4.25;;;;;;;5.84;58.41;100301.16;5033336;28;20116;-37
2022/11/26 03:51:48;;;;;;;6.43;4.35;;;;;;;5.86;58.82;100312.41;5033239;28;20096;-37
2022/11/26 03:54:14;;;;;;;7.45;4.57;;;;;;;5.63;59.24;100314.78;5033091;28;20017;-37
2022/11/26 03:56:39;;;;;;;9.98;5.60;;;;;;;5.66;59.16;100317.94;5033451;28;20588;-38
2022/11/26 03:59:05;;;;;;;8.93;5.72;;;;;;;5.59;59.97;100324.81;5032735;28;20160;-37
2022/11/26 04:01:30;;;;;;;12.38;6.40;;;;;;;5.41;60.03;100324.06;5033522;28;20317;-35
2022/11/26 04:03:56;;;;;;;9.95;5.80;;;;;;;5.44;59.70;100335.13;5033087;28;20187;-35
2022/11/26 04:06:21;;;;;;;11.48;5.90;;;;;;;5.55;59.34;100335.84;5033242;28;20036;-38
2022/11/26 04:08:46;;;;;;;8.98;5.05;;;;;;;5.58;59.59;100333.72;5033184;28;20024;-36
2022/11/26 04:11:12;;;;;;;6.20;4.20;;;;;;;5.55;59.62;100338.50;5032305;28;20028;-37
2022/11/26 04:13:38;;;;;;;6.55;4.30;;;;;;;5.57;59.57;100347.91;5032477;28;20482;-36
2022/11/26 04:16:03;;;;;;;6.05;4.05;;;;;;;5.54;60.07;100350.03;5032229;28;20021;-36
2022/11/26 04:18:29;;;;;;;7.63;4.40;;;;;;;5.53;59.56;100351.84;5032815;28;20441;-36
2022/11/26 04:20:54;;;;;;;5.65;4.22;;;;;;;5.43;60.20;100349.31;5032519;28;20481;-36
2022/11/26 04:23:20;;;;;;;6.43;4.38;;;;;;;5.64;59.49;100356.06;5032717;28;20042;-36
2022/11/26 04:25:45;;;;;;;7.80;4.30;;;;;;;5.60;60.26;100352.06;5032846;28;20477;-36
2022/11/26 04:28:12;;;;;;;7.28;4.75;;;;;;;5.47;60.59;100352.47;5032844;28;20017;-36
2022/11/26 04:30:37;;;;;;;7.63;4.43;;;;;;;5.47;60.38;100357.75;5031709;28;20466;-36
2022/11/26 04:33:03;;;;;;;6.13;4.22;;;;;;;5.44;60.34;100358.06;5032701;28;20040;-36
2022/11/26 04:35:28;;;;;;;11.05;4.80;;;;;;;5.27;61.34;100357.97;5032483;28;20371;-36
2022/11/26 04:37:54;;;;;;;8.20;5.18;;;;;;;5.34;60.81;100357.34;5032666;28;20436;-36
2022/11/26 04:40:19;;;;;;;10.52;5.90;;;;;;;5.14;61.79;100367.25;5032666;28;20021;-37
2022/11/26 04:42:45;;;;;;;8.93;5.18;;;;;;;5.31;60.79;100376.94;5032262;28;20040;-36
2022/11/26 04:45:10;;;;;;;8.15;4.88;;;;;;;5.32;61.04;100377.78;5032329;28;20127;-36
2022/11/26 04:47:36;;;;;;;10.75;6.00;;;;;;;5.11;61.60;100372.84;5032041;28;20021;-36
2022/11/26 04:50:01;;;;;;;17.55;8.73;;;;;;;5.20;61.35;100379.84;5032112;28;20022;-36
2022/11/26 04:52:26;;;;;;;17.40;9.73;;;;;;;5.31;61.22;100379.56;5032436;28;20024;-37
2022/11/26 04:54:52;;;;;;;12.38;7.07;;;;;;;4.92;62.46;100377.28;5032500;28;20017;-36
2022/11/26 04:57:17;;;;;;;28.88;13.38;;;;;;;4.74;62.96;100387.84;5032032;28;20021;-36
2022/11/26 04:59:43;;;;;;;7.45;5.03;;;;;;;4.73;63.30;100394.09;5031909;28;20129;-36
2022/11/26 05:02:08;;;;;;;7.50;4.70;;;;;;;4.65;63.28;100396.66;5031910;28;20052;-37
2022/11/26 05:04:34;;;;;;;9.65;4.80;;;;;;;4.62;63.74;100402.22;5032160;28;20026;-36
2022/11/26 05:06:59;;;;;;;9.27;4.80;;;;;;;4.55;63.68;100404.63;5032104;28;20029;-38
2022/11/26 05:09:24;;;;;;;8.00;5.03;;;;;;;4.61;63.49;100405.84;5031931;28;20025;-37
2022/11/26 05:11:50;;;;;;;9.30;4.35;;;;;;;4.45;63.98;100417.81;5032033;28;20048;-37
2022/11/26 05:14:15;;;;;;;8.00;4.85;;;;;;;4.55;64.15;100412.53;5032297;28;20021;-37
2022/11/26 05:16:41;;;;;;;11.73;5.03;;;;;;;4.43;64.69;100416.31;5031606;28;20028;-37
2022/11/26 05:19:06;;;;;;;7.63;4.80;;;;;;;4.60;64.33;100415.53;5031973;28;20025;-36
2022/11/26 05:21:32;;;;;;;8.45;5.40;;;;;;;4.53;65.01;100421.53;5031674;28;20025;-37
2022/11/26 05:23:57;;;;;;;9.32;5.38;;;;;;;4.57;64.57;100430.81;5031733;28;20476;-37
2022/11/26 05:26:23;;;;;;;10.75;5.70;;;;;;;4.38;65.18;100427.31;5031013;28;20576;-37
2022/11/26 05:28:48;;;;;;;10.43;6.15;;;;;;;4.51;64.68;100432.22;5031813;28;20477;-37
2022/11/26 05:31:14;;;;;;;17.90;8.57;;;;;;;4.58;64.10;100435.94;5031635;28;20033;-36
2022/11/26 05:33:39;;;;;;;23.40;15.63;;;;;;;4.46;65.12;100429.22;5032079;28;20026;-36
2022/11/26 05:36:05;;;;;;;13.93;9.50;;;;;;;4.49;65.14;100434.19;5031667;28;20029;-36
2022/11/26 05:38:30;;;;;;;11.27;6.97;;;;;;;4.35;64.90;100432.88;5031742;28;20492;-36
2022/11/26 05:40:56;;;;;;;15.88;6.50;;;;;;;4.39;65.02;100428.97;5031641;28;20080;-37
2022/11/26 05:43:21;;;;;;;14.43;6.72;;;;;;;4.58;64.27;100427.22;5030287;28;20083;-36
2022/11/26 05:45:47;;;;;;;9.68;5.43;;;;;;;4.93;63.32;100441.41;5031634;28;20025;-36
2022/11/26 05:48:12;;;;;;;9.35;5.32;;;;;;;5.24;62.70;100436.59;5031603;28;20100;-37
2022/11/26 05:50:38;;;;;;;8.40;5.38;;;;;;;5.29;62.16;100445.72;5031104;28;20188;-36
2022/11/26 05:53:03;;;;;;;10.85;5.65;;;;;;;5.76;61.08;100443.75;5031396;28;20037;-36
2022/11/26 05:55:29;;;;;;;9.45;5.32;;;;;;;6.10;59.83;100443.00;5031263;28;20030;-37
2022/11/26 05:57:54;;;;;;;10.10;5.30;;;;;;;6.30;58.59;100449.69;5030815;28;20022;-36
2022/11/26 06:00:20;;;;;;;10.40;4.80;;;;;;;6.28;58.74;100445.56;5031163;28;20537;-36
2022/11/26 06:02:45;;;;;;;9.00;4.75;;;;;;;6.54;57.96;100448.16;5031079;28;20037;-36
2022/11/26 06:05:12;;;;;;;9.48;5.05;;;;;;;6.86;56.97;100458.00;5030909;28;20052;-36
2022/11/26 06:07:37;;;;;;;9.50;5.22;;;;;;;7.04;56.18;100461.38;5031097;28;20488;-36
2022/11/26 06:10:04;;;;;;;11.93;6.70;;;;;;;7.14;55.66;100460.34;5030924;28;20029;-36
2022/11/26 06:12:29;;;;;;;10.88;6.30;;;;;;;7.55;54.53;100458.56;5031759;28;20086;-36
2022/11/26 06:14:54;;;;;;;8.75;5.60;;;;;;;7.59;54.01;100467.00;5030988;28;20029;-35
2022/11/26 06:17:20;;;;;;;7.38;4.55;;;;;;;7.97;52.55;100464.66;5030965;28;20051;-36
2022/11/26 06:19:45;;;;;;;11.00;5.35;;;;;;;8.07;52.19;100472.41;5031080;28;20060;-36
2022/11/26 06:22:11;;;;;;;11.52;5.60;;;;;;;8.31;52.05;100467.03;5031064;28;20025;-36
2022/11/26 06:24:36;;;;;;;16.70;9.25;;;;;;;8.17;51.65;100465.94;5031006;28;20045;-36
2022/11/26 06:27:02;;;;;;;16.67;9.27;;;;;;;8.34;51.84;100476.47;5031290;28;20044;-36
2022/11/26 06:29:27;;;;;;;10.73;6.30;;;;;;;8.65;51.33;100470.44;5030588;28;20033;-36
2022/11/26 06:31:53;;;;;;;7.00;4.47;;;;;;;8.71;50.35;100488.31;5030653;28;20108;-37
2022/11/26 06:34:18;;;;;;;12.82;8.18;;;;;;;8.92;50.54;100482.41;5030151;28;20040;-37
2022/11/26 06:36:43;;;;;;;18.52;11.07;;;;;;;10.10;48.07;100483.78;5030453;28;20039;-36
2022/11/26 06:39:10;;;;;;;13.10;8.82;;;;;;;10.20;46.93;100486.19;5033898;28;20025;-37
2022/11/26 06:41:35;;;;;;;6.97;4.80;;;;;;;10.06;47.46;100488.66;5034016;28;20114;-36
2022/11/26 06:44:01;;;;;;;6.90;5.13;;;;;;;10.33;47.61;100484.56;5033826;28;20157;-37
2022/11/26 06:46:27;;;;;;;7.07;4.63;;;;;;;10.94;47.26;100489.59;5033824;28;20030;-37
2022/11/26 06:48:53;;;;;;;6.72;4.63;;;;;;;11.23;47.54;100489.72;5033466;28;20452;-38
2022/11/26 06:51:20;;;;;;;9.05;4.60;;;;;;;12.25;49.20;100496.53;5033494;28;20026;-37
2022/11/26 06:53:46;;;;;;;11.00;5.03;;;;;;;13.13;47.35;100491.34;5033476;28;20036;-37
2022/11/26 06:56:13;;;;;;;9.82;5.85;;;;;;;12.88;40.78;100486.56;5033460;28;20033;-36
2022/11/26 06:58:39;;;;;;;8.20;4.70;;;;;;;12.46;41.53;100499.09;5033234;28;20105;-36
2022/11/26 07:01:14;;;;;;;7.20;4.45;;;;;;;12.31;43.33;100501.06;5033250;28;20120;-37
2022/11/26 07:03:39;;;;;;;6.30;4.07;;;;;;;12.46;44.48;100492.94;5033232;28;20029;-37
2022/11/26 07:06:31;;;;;;;6.85;4.40;;;;;;;12.19;43.34;100497.31;5033409;28;20032;-37
2022/11/26 07:09:03;;;;;;;7.90;4.97;;;;;;;12.28;41.85;100507.63;5033448;28;20155;-37
2022/11/26 07:11:28;;;;;;;7.15;4.53;;;;;;;12.13;41.84;100501.59;5033315;28;20029;-36
2022/11/26 07:13:53;;;;;;;14.15;9.48;;;;;;;12.78;41.03;100507.47;5033204;28;20481;-38
2022/11/26 07:16:19;;;;;;;14.93;6.72;;;;;;;13.25;39.59;100497.75;5033223;28;20021;-36
2022/11/26 07:18:50;;;;;;;8.90;5.55;;;;;;;12.71;40.06;100498.59;5033266;28;20426;-37
2022/11/26 07:21:16;;;;;;;10.80;5.85;;;;;;;12.30;40.79;100491.44;5032553;28;20460;-37
2022/11/26 07:23:41;;;;;;;9.75;4.05;;;;;;;12.77;39.90;100499.66;5033275;28;20137;-38
2022/11/26 07:26:08;;;;;;;5.45;4.07;;;;;;;12.95;39.45;100493.78;5031851;28;20029;-37
2022/11/26 07:28:34;;;;;;;8.55;4.20;;;;;;;12.77;40.37;100497.81;5033212;28;20048;-36
2022/11/26 07:31:01;;;;;;;8.30;4.80;;;;;;;12.73;39.91;100496.56;5033130;28;20018;-35
2022/11/26 07:33:27;;;;;;;8.50;5.43;;;;;;;13.10;39.37;100499.78;5032752;28;20026;-37
2022/11/26 07:35:52;;;;;;;9.60;4.60;;;;;;;12.93;39.64;100491.31;5032885;28;20094;-37
2022/11/26 07:38:18;;;;;;;7.38;4.65;;;;;;;13.01;40.50;100485.78;5032498;28;20030;-37
2022/11/26 07:40:43;;;;;;;5.03;3.88;;;;;;;13.02;40.46;100491.94;5032212;28;20029;-36
2022/11/26 07:43:09;;;;;;;6.07;4.07;;;;;;;13.15;40.84;100483.94;5032433;28;20087;-37
2022/11/26 07:45:36;;;;;;;5.20;3.75;;;;;;;13.41;40.54;100480.53;5032583;28;20029;-44
2022/11/26 07:48:03;;;;;;;7.57;4.13;;;;;;;13.58;40.11;100480.97;5032489;28;20017;-37
2022/11/26 07:50:29;;;;;;;9.65;5.18;;;;;;;13.43;39.72;100480.34;5031439;28;20053;-38
2022/11/26 07:52:54;;;;;;;5.90;4.65;;;;;;;12.84;41.46;100489.84;5031874;28;20052;-37
2022/11/26 07:55:20;;;;;;;4.90;4.05;;;;;;;12.77;42.53;100481.78;5032110;28;20140;-37
2022/11/26 07:57:45;;;;;;;7.90;5.20;;;;;;;12.81;42.97;100491.06;5031774;28;20105;-35
2022/11/26 08:00:11;;;;;;;6.60;4.82;;;;;;;12.94;42.55;100494.78;5032528;28;20029;-36
2022/11/26 08:02:36;;;;;;;6.90;5.30;;;;;;;12.94;42.75;100494.78;5032278;28;20029;-36
2022/11/26 08:05:02;;;;;;;7.50;4.90;;;;;;;12.30;44.23;100496.78;5031886;28;20029;-37
2022/11/26 08:07:27;;;;;;;10.02;5.35;;;;;;;11.93;45.20;100491.59;5032474;28;20029;-37
2022/11/26 08:09:53;;;;;;;7.47;4.90;;;;;;;12.59;44.39;100489.53;5032000;28;20095;-36
2022/11/26 08:12:18;;;;;;;6.85;4.80;;;;;;;12.96;43.40;100492.75;5031650;28;20029;-38
2022/11/26 08:14:44;;;;;;;8.90;5.22;;;;;;;13.05;43.05;100492.34;5031494;28;20116;-38
2022/11/26 08:17:09;;;;;;;16.52;11.18;;;;;;;13.20;42.65;100481.50;5031516;28;20033;-38
2022/11/26 08:19:35;;;;;;;9.93;5.10;;;;;;;13.72;40.79;100480.97;5032172;28;20057;-39
2022/11/26 08:22:00;;;;;;;6.18;4.45;;;;;;;13.66;40.36;100480.75;5031859;28;20108;-43
2022/11/26 08:24:25;;;;;;;7.82;4.90;;;;;;;13.57;40.34;100490.00;5031944;28;20505;-44
2022/11/26 08:26:51;;;;;;;5.05;4.00;;;;;;;13.46;39.78;100486.09;5031761;28;20063;-43
2022/11/26 08:29:16;;;;;;;33.47;5.03;;;;;;;13.59;39.64;100487.94;5031896;28;20033;-43
2022/11/26 08:31:42;;;;;;;8.40;4.35;;;;;;;14.10;39.09;100488.34;5031220;28;20048;-44
2022/11/26 08:34:12;;;;;;;27.90;14.43;;;;;;;13.79;39.12;100481.78;5031362;28;20083;-45
2022/11/26 08:36:38;;;;;;;14.77;5.63;;;;;;;13.67;38.99;100485.09;5031659;28;20458;-44
2022/11/26 08:39:03;;;;;;;8.57;4.63;;;;;;;13.48;39.14;100483.22;5031315;28;20034;-43
2022/11/26 08:41:29;;;;;;;7.68;4.30;;;;;;;13.74;39.30;100487.75;5031396;28;20040;-43
2022/11/26 08:43:54;;;;;;;9.23;4.65;;;;;;;14.01;38.47;100485.91;5031517;28;20030;-44
2022/11/26 08:46:20;;;;;;;7.53;4.63;;;;;;;13.98;38.63;100488.16;5030983;28;20053;-45
2022/11/26 08:48:46;;;;;;;7.38;4.63;;;;;;;13.79;38.36;100487.16;5031329;28;20453;-44
2022/11/26 08:51:11;;;;;;;8.02;4.28;;;;;;;13.95;38.19;100486.69;5031349;28;20059;-44
2022/11/26 08:53:38;;;;;;;7.05;4.47;;;;;;;14.02;38.32;100482.16;5031325;28;20021;-44
2022/11/26 08:56:06;;;;;;;5.88;3.90;;;;;;;13.69;38.92;100482.22;5031115;28;20479;-43
2022/11/26 08:58:33;;;;;;;5.63;3.78;;;;;;;13.48;39.23;100485.91;5029744;28;20512;-44
2022/11/26 09:00:58;;;;;;;5.45;3.78;;;;;;;13.50;39.23;100483.84;5030548;28;20160;-43
2022/11/26 09:03:24;;;;;;;13.23;9.52;;;;;;;13.12;39.54;100495.06;5030838;28;20120;-43
2022/11/26 09:05:50;;;;;;;12.48;6.80;;;;;;;13.30;39.20;100492.66;5031190;28;20030;-44
2022/11/26 09:08:15;;;;;;;7.05;3.83;;;;;;;14.00;38.62;100497.63;5031038;28;20139;-43
2022/11/26 09:10:41;;;;;;;5.60;3.53;;;;;;;13.90;38.00;100494.56;5031157;28;20037;-44
2022/11/26 09:13:06;;;;;;;6.55;3.67;;;;;;;13.49;39.02;100493.69;5030909;28;20036;-44
2022/11/26 09:15:31;;;;;;;8.80;3.80;;;;;;;13.65;38.65;100491.66;5030870;28;20037;-45
2022/11/26 09:17:57;;;;;;;7.07;4.00;;;;;;;13.63;38.80;100488.34;5030754;28;20022;-44
2022/11/26 09:20:22;;;;;;;5.55;3.67;;;;;;;13.85;38.12;100494.34;5030363;28;20025;-45
2022/11/26 09:22:48;;;;;;;5.90;3.83;;;;;;;13.97;37.97;100489.19;5027925;28;20079;-44
2022/11/26 09:25:13;;;;;;;6.85;3.67;;;;;;;13.20;39.74;100489.53;5029305;28;20045;-44
2022/11/26 09:27:39;;;;;;;6.75;4.10;;;;;;;13.24;39.06;100471.22;5029737;28;20147;-44
2022/11/26 09:30:05;;;;;;;71.05;38.28;;;;;;;13.57;38.89;100479.31;5030053;28;20029;-44
2022/11/26 09:32:30;;;;;;;6.18;4.35;;;;;;;13.82;38.51;100474.19;5030081;28;20064;-46
2022/11/26 09:34:56;;;;;;;7.63;4.78;;;;;;;14.15;37.56;100475.97;5027681;28;20156;-44
2022/11/26 09:37:21;;;;;;;6.20;4.57;;;;;;;14.34;37.38;100471.63;5029870;28;20029;-42
2022/11/26 09:39:47;;;;;;;6.40;4.20;;;;;;;13.48;38.56;100467.19;5030642;28;20484;-44
2022/11/26 09:42:15;;;;;;;7.55;4.47;;;;;;;13.62;39.58;100468.81;5030586;28;20086;-43
2022/11/26 09:44:53;;;;;;;6.32;4.55;;;;;;;13.68;39.20;100467.19;5030773;28;20047;-43
2022/11/26 09:47:24;;;;;;;5.90;4.32;;;;;;;13.67;38.86;100458.34;5030594;28;20021;-43
2022/11/26 09:50:02;;;;;;;8.20;5.13;;;;;;;13.84;38.52;100455.22;5030756;28;20113;-36
2022/11/26 09:52:35;;;;;;;6.45;4.38;;;;;;;13.98;38.52;100453.38;5030515;28;20103;-36
2022/11/26 09:55:17;;;;;;;6.55;4.45;;;;;;;13.88;38.29;100448.47;5030457;28;20049;-43
2022/11/26 09:57:50;;;;;;;5.43;4.30;;;;;;;14.05;38.21;100446.97;5030541;28;20513;-38
2022/11/26 10:00:47;;;;;;;7.47;4.60;;;;;;;13.54;38.39;100436.13;5030202;28;20393;-37
2022/11/26 10:03:15;;;;;;;8.50;5.07;;;;;;;14.03;37.84;100445.53;5030438;28;20466;-37
2022/11/26 10:05:49;;;;;;;7.05;4.43;;;;;;;14.22;37.36;100438.47;5030376;28;20116;-37
2022/11/26 10:08:26;;;;;;;4.82;3.53;;;;;;;13.94;37.14;100436.91;5030638;28;20071;-38
2022/11/26 10:11:11;;;;;;;5.20;3.55;;;;;;;13.46;37.77;100434.47;5030382;28;20433;-36
2022/11/26 10:13:46;;;;;;;4.40;3.25;;;;;;;13.87;37.59;100417.38;5032945;28;20100;-37
2022/11/26 10:16:34;;;;;;;4.30;3.28;;;;;;;13.32;37.98;100422.94;5034526;28;20040;-37
2022/11/26 10:19:29;;;;;;;4.00;2.95;;;;;;;13.68;37.13;100419.84;5033190;28;20124;-38
2022/11/26 10:21:59;;;;;;;3.97;3.08;;;;;;;13.97;36.73;100420.41;5025425;28;20496;-36
2022/11/26 10:24:40;;;;;;;5.80;3.30;;;;;;;13.85;36.57;100414.91;5034133;28;20089;-37
2022/11/26 10:27:15;;;;;;;6.72;3.63;;;;;;;13.92;36.87;100422.94;5032262;28;20146;-38
2022/11/26 10:29:43;;;;;;;4.80;3.40;;;;;;;14.23;36.42;100416.84;5033509;28;20132;-38
2022/11/26 10:32:14;;;;;;;4.60;2.97;;;;;;;14.16;36.37;100407.22;5034233;28;20029;-36
2022/11/26 10:34:54;;;;;;;5.97;3.40;;;;;;;14.34;35.81;100410.03;5033429;28;20108;-36
2022/11/26 10:37:22;;;;;;;6.28;4.00;;;;;;;14.05;36.76;100414.03;5033020;28;20040;-37
2022/11/26 10:39:48;;;;;;;5.40;3.55;;;;;;;14.12;36.95;100409.47;5033415;28;20033;-38
2022/11/26 10:42:19;;;;;;;4.75;3.50;;;;;;;14.68;35.79;100400.03;5033411;28;20392;-36
2022/11/26 10:44:47;;;;;;;6.43;4.40;;;;;;;14.88;35.85;100402.56;5033176;28;20616;-36
2022/11/26 10:47:28;;;;;;;5.30;3.88;;;;;;;13.87;36.57;100401.31;5032600;28;20017;-37
2022/11/26 10:50:02;;;;;;;4.32;3.30;;;;;;;13.90;37.42;100403.59;5032004;28;20025;-37
2022/11/26 10:52:31;;;;;;;23.33;14.27;;;;;;;14.20;36.29;100403.06;5030841;28;20033;-37
2022/11/26 10:55:17;;;;;;;6.45;4.63;;;;;;;14.24;35.62;100398.94;5032037;28;20535;-37
2022/11/26 10:57:49;;;;;;;7.28;3.40;;;;;;;14.78;35.04;100394.19;5031292;28;20025;-37
2022/11/26 11:00:33;;;;;;;6.57;4.20;;;;;;;14.59;35.03;100402.13;5031663;28;20029;-38
2022/11/26 11:03:00;;;;;;;5.07;3.35;;;;;;;14.56;36.00;100390.97;5031844;28;20018;-37
2022/11/26 11:05:27;;;;;;;5.55;3.40;;;;;;;14.71;36.08;100394.22;5032370;28;20048;-37
2022/11/26 11:07:53;;;;;;;4.43;3.47;;;;;;;15.04;34.57;100401.22;5032098;28;20017;-36
2022/11/26 11:10:22;;;;;;;4.60;3.47;;;;;;;15.42;34.66;100400.31;5032277;28;20064;-37
2022/11/26 11:13:07;;;;;;;4.60;3.33;;;;;;;14.99;34.72;100396.53;5032644;28;20386;-36
2022/11/26 11:15:34;;;;;;;5.70;3.00;;;;;;;15.05;33.49;100390.28;5032245;28;20037;-36
2022/11/26 11:18:12;;;;;;;3.78;2.58;;;;;;;15.08;33.48;100389.06;5031986;28;20053;-37
2022/11/26 11:20:55;;;;;;;6.75;4.18;;;;;;;14.96;33.90;100386.22;5032044;28;20021;-37
2022/11/26 11:23:24;;;;;;;10.02;5.25;;;;;;;14.92;35.12;100386.91;5032344;28;20053;-37
2022/11/26 11:26:32;;;;;;;6.75;4.28;;;;;;;15.03;34.35;100388.88;5031536;28;20026;-36
2022/11/26 11:28:57;;;;;;;9.20;5.68;;;;;;;14.93;35.44;100385.88;5009859;28;20026;-36
2022/11/26 11:31:25;;;;;;;6.93;4.28;;;;;;;14.75;35.33;100384.72;5027272;28;20098;-37
2022/11/26 11:34:11;;;;;;;4.45;3.30;;;;;;;15.38;34.03;100383.88;5032168;28;20025;-37
2022/11/26 11:36:37;;;;;;;4.70;3.72;;;;;;;15.01;34.79;100380.25;5032020;28;20064;-37